Terminal Aerodrome Forecast
Issued by NWS

Home | Current Version | Previous Version | Text Only | Print | Product List | Glossary On
Versions: 1 2 3 4 5 6 7 8 9 10 11 12 13 14 15 16 17 18 19 20 21 22 23 24 25 26 27 28 29 30 31 32 33 34
000
FTUS41 KBOX 012149 AAA
TAFBAF
TAF AMD
KBAF 012149Z 0122/0218 17012G22KT 6SM -TSRA SCT025 BKN035CB
      TEMPO 0122/0123 3SM TSRA BKN025CB
     FM012300 19005KT P6SM SCT090 BKN250
     FM020600 00000KT P6SM BKN080
     FM021100 00000KT P6SM OVC025
     FM021500 VRB03KT P6SM -SHRA BKN025=

USA.gov is the U.S. government's official web portal to all federal, state and local government web resources and services.